Time;durP1;ratioP1;P1;durP2;ratioP2;P2;SDS_P1;SDS_P2;PMS_P1;PMS_P2;Temp;Humidity;BMP_temperature;BMP_pressure;BME280_temperature;BME280_humidity;BME280_pressure;Samples;Min_cycle;Max_cycle;Signal;HPM_P1;HPM_P2
2021/09/20 00:01:57;;;;;;;3.53;2.75;;;11.20;99.90;;;;;;5107904;28;20275;-81
2021/09/20 00:04:23;;;;;;;;;;;11.20;99.90;;;;;;5107252;28;20506;-81
2021/09/20 00:06:48;;;;;;;5.05;3.00;;;11.20;99.90;;;;;;5110807;28;19915;-84
2021/09/20 00:09:14;;;;;;;;;;;11.20;99.90;;;;;;5112236;28;20047;-83
2021/09/20 00:11:40;;;;;;;4.22;3.28;;;11.20;99.90;;;;;;5112575;28;19904;-84
2021/09/20 00:14:05;;;;;;;;;;;11.20;99.90;;;;;;5113832;28;20032;-83
2021/09/20 00:16:31;;;;;;;4.88;3.45;;;11.20;99.90;;;;;;5112812;28;20387;-83
2021/09/20 00:18:56;;;;;;;;;;;11.30;99.90;;;;;;5110636;28;20510;-82
2021/09/20 00:21:24;;;;;;;5.88;3.47;;;11.30;99.90;;;;;;5109495;28;19933;-81
2021/09/20 00:23:50;;;;;;;4.32;3.03;;;11.30;99.90;;;;;;5110449;28;20453;-81
2021/09/20 00:26:16;;;;;;;4.60;3.10;;;11.40;99.90;;;;;;5111204;28;20031;-83
2021/09/20 00:28:41;;;;;;;;;;;11.40;99.90;;;;;;5110649;28;20057;-82
2021/09/20 00:31:07;;;;;;;3.58;2.70;;;11.40;99.90;;;;;;5111106;28;19914;-83
2021/09/20 00:33:32;;;;;;;;;;;11.40;99.90;;;;;;5112599;28;20028;-82
2021/09/20 00:35:58;;;;;;;3.90;2.67;;;11.30;99.90;;;;;;5110600;28;20444;-83
2021/09/20 00:38:24;;;;;;;;;;;11.30;99.90;;;;;;5112294;28;20040;-82
2021/09/20 00:40:50;;;;;;;4.10;2.72;;;11.30;99.90;;;;;;5112034;28;19904;-83
2021/09/20 00:43:16;;;;;;;4.35;3.22;;;11.30;99.90;;;;;;5110810;28;20031;-82
2021/09/20 00:45:42;;;;;;;;;;;11.30;99.90;;;;;;5110927;28;20492;-83
2021/09/20 00:48:08;;;;;;;3.72;2.78;;;11.30;99.90;;;;;;5110028;28;19915;-81
2021/09/20 00:50:33;;;;;;;;;;;11.20;99.90;;;;;;5111715;28;20034;-82
2021/09/20 00:52:59;;;;;;;5.45;3.35;;;11.20;99.90;;;;;;5111036;28;20400;-83
2021/09/20 00:55:25;;;;;;;;;;;11.20;99.90;;;;;;5109864;28;20122;-83
2021/09/20 00:57:51;;;;;;;8.10;3.67;;;11.20;99.90;;;;;;5111102;28;20571;-80
2021/09/20 01:00:17;;;;;;;4.28;3.20;;;11.10;99.90;;;;;;5111044;28;20035;-82
2021/09/20 01:02:43;;;;;;;5.03;3.30;;;11.20;99.90;;;;;;5110697;28;20060;-80
2021/09/20 01:05:09;;;;;;;;;;;11.20;99.90;;;;;;5110282;28;20026;-81
2021/09/20 01:07:35;;;;;;;4.80;3.30;;;11.20;99.90;;;;;;5111212;28;19904;-84
2021/09/20 01:10:02;;;;;;;;;;;11.20;99.90;;;;;;5112691;28;20054;-83
2021/09/20 01:12:28;;;;;;;5.40;3.45;;;11.20;99.90;;;;;;5111068;28;19910;-84
2021/09/20 01:14:58;;;;;;;5.85;3.90;;;11.20;99.90;;;;;;5111322;28;20556;-85
2021/09/20 01:17:24;;;;;;;7.90;3.30;;;11.20;99.90;;;;;;5111018;28;20076;-83
2021/09/20 01:19:49;;;;;;;;;;;11.20;99.90;;;;;;5112627;28;20043;-82
2021/09/20 01:22:19;;;;;;;5.60;3.63;;;11.20;99.90;;;;;;5111437;28;19904;-84
2021/09/20 01:24:45;;;;;;;4.53;2.53;;;11.20;99.90;;;;;;5109752;28;20020;-83
2021/09/20 01:27:13;;;;;;;3.10;2.50;;;11.20;99.90;;;;;;5111359;28;20096;-82
2021/09/20 01:29:39;;;;;;;3.25;2.45;;;11.20;99.90;;;;;;5109474;28;20031;-82
2021/09/20 01:32:04;;;;;;;;;;;11.10;99.90;;;;;;5109656;28;20593;-80
2021/09/20 01:34:32;;;;;;;3.58;2.53;;;11.00;99.90;;;;;;5109036;28;19961;-81
2021/09/20 01:36:57;;;;;;;4.10;3.00;;;11.00;99.90;;;;;;5109892;28;20053;-85
2021/09/20 01:39:24;;;;;;;;;;;10.90;99.90;;;;;;5110247;28;20496;-81
2021/09/20 01:41:52;;;;;;;4.80;3.05;;;10.80;99.90;;;;;;5109856;28;19908;-82
2021/09/20 01:44:18;;;;;;;4.70;3.03;;;10.80;99.90;;;;;;5108884;28;20039;-82
2021/09/20 01:46:44;;;;;;;;;;;10.80;99.90;;;;;;5107958;28;20024;-81
2021/09/20 01:49:10;;;;;;;4.85;2.90;;;10.80;99.90;;;;;;5108576;28;19946;-81
2021/09/20 01:51:36;;;;;;;;;;;10.80;99.90;;;;;;5108901;28;20062;-82
2021/09/20 01:54:03;;;;;;;6.40;3.20;;;10.80;99.90;;;;;;5107807;28;20619;-80
2021/09/20 01:56:29;;;;;;;4.32;3.28;;;10.80;99.90;;;;;;5109638;28;20471;-82
2021/09/20 01:58:54;;;;;;;;;;;10.80;99.90;;;;;;5108734;28;20044;-82
2021/09/20 02:01:20;;;;;;;4.30;2.92;;;10.80;99.90;;;;;;5107690;28;20705;-82
2021/09/20 02:03:45;;;;;;;;;;;10.80;99.90;;;;;;5107417;28;20024;-82
2021/09/20 02:06:11;;;;;;;3.85;2.92;;;10.80;99.90;;;;;;5108231;28;20288;-81
2021/09/20 02:08:37;;;;;;;;;;;10.90;99.90;;;;;;5109018;28;20024;-83
2021/09/20 02:11:04;;;;;;;4.28;3.13;;;10.80;99.90;;;;;;5108352;28;20375;-82
2021/09/20 02:13:29;;;;;;;4.20;3.13;;;10.70;99.90;;;;;;5108060;28;20095;-82
2021/09/20 02:15:55;;;;;;;;;;;10.70;99.90;;;;;;5109123;28;20027;-80
2021/09/20 02:18:21;;;;;;;3.67;2.95;;;10.60;99.90;;;;;;5107859;28;19920;-82
2021/09/20 02:20:46;;;;;;;;;;;10.60;99.90;;;;;;5107429;28;20023;-82
2021/09/20 02:23:14;;;;;;;4.43;3.55;;;10.50;99.90;;;;;;5109059;28;20307;-83
2021/09/20 02:25:40;;;;;;;3.97;3.00;;;10.50;99.90;;;;;;5106983;28;20023;-82
2021/09/20 02:28:07;;;;;;;5.65;3.15;;;10.40;99.90;;;;;;5107914;28;20073;-81
2021/09/20 02:30:32;;;;;;;4.47;3.20;;;10.40;99.90;;;;;;5107485;28;20079;-82
2021/09/20 02:32:58;;;;;;;;;;;10.40;99.90;;;;;;5108019;28;20051;-83
2021/09/20 02:35:24;;;;;;;4.60;3.05;;;10.30;99.90;;;;;;5106084;28;19907;-81
2021/09/20 02:37:49;;;;;;;;;;;10.20;99.90;;;;;;5109272;28;20120;-80
2021/09/20 02:40:15;;;;;;;4.50;2.90;;;10.10;99.90;;;;;;5108764;28;19915;-81
2021/09/20 02:42:41;;;;;;;;;;;10.00;99.90;;;;;;5109153;28;20012;-82
2021/09/20 02:45:07;;;;;;;3.42;2.90;;;9.90;99.90;;;;;;5108424;28;19911;-82
2021/09/20 02:47:34;;;;;;;4.10;3.22;;;9.90;99.90;;;;;;5108695;28;20061;-83
2021/09/20 02:50:00;;;;;;;4.05;3.20;;;9.80;99.90;;;;;;5109027;28;20046;-82
2021/09/20 02:52:26;;;;;;;;;;;9.80;99.90;;;;;;5107894;28;20023;-83
2021/09/20 02:54:51;;;;;;;5.22;3.25;;;9.80;99.90;;;;;;5108878;28;19908;-82
2021/09/20 02:57:17;;;;;;;;;;;9.80;99.90;;;;;;5107881;28;20032;-82
2021/09/20 02:59:43;;;;;;;6.13;3.25;;;9.90;99.90;;;;;;5106415;28;19938;-83
2021/09/20 03:02:08;;;;;;;;;;;9.90;99.90;;;;;;5108124;28;20723;-81
2021/09/20 03:04:34;;;;;;;5.70;3.75;;;9.90;99.90;;;;;;5108219;28;19907;-82
2021/09/20 03:06:59;;;;;;;6.75;3.72;;;10.00;99.90;;;;;;5108289;28;20036;-82
2021/09/20 03:09:25;;;;;;;;;;;10.00;99.90;;;;;;5107754;28;20034;-82
2021/09/20 03:11:50;;;;;;;12.02;5.00;;;10.10;99.90;;;;;;5108466;28;19910;-83
2021/09/20 03:14:16;;;;;;;;;;;10.10;99.90;;;;;;5112133;28;20024;-84
2021/09/20 03:16:42;;;;;;;4.72;3.47;;;10.10;99.90;;;;;;5107047;28;19914;-82
2021/09/20 03:19:07;;;;;;;;;;;10.20;99.90;;;;;;5108064;28;20424;-82
2021/09/20 03:21:33;;;;;;;4.95;3.72;;;10.20;99.90;;;;;;5107411;28;19958;-82
2021/09/20 03:23:58;;;;;;;;;;;10.20;99.90;;;;;;5107773;28;20058;-81
2021/09/20 03:26:24;;;;;;;4.88;3.90;;;10.20;99.90;;;;;;5107908;28;19904;-82
2021/09/20 03:28:50;;;;;;;;;;;10.10;99.90;;;;;;5108530;28;20024;-81
2021/09/20 03:31:15;;;;;;;5.03;3.85;;;10.10;99.90;;;;;;5106897;28;20675;-83
2021/09/20 03:33:41;;;;;;;;;;;10.10;99.90;;;;;;5108776;28;20031;-82
2021/09/20 03:36:06;;;;;;;4.13;2.90;;;10.10;99.90;;;;;;5108236;28;19905;-82
2021/09/20 03:38:32;;;;;;;;;;;10.10;99.90;;;;;;5107129;28;20051;-82
2021/09/20 03:40:58;;;;;;;4.45;3.00;;;10.00;99.90;;;;;;5111501;28;19943;-82
2021/09/20 03:43:23;;;;;;;;;;;10.00;99.90;;;;;;5112661;28;20518;-81
2021/09/20 03:45:49;;;;;;;5.90;4.00;;;10.00;99.90;;;;;;5111757;28;19911;-82
2021/09/20 03:48:14;;;;;;;4.70;3.65;;;9.90;99.90;;;;;;5112235;28;20031;-82
2021/09/20 03:50:40;;;;;;;;;;;9.90;99.90;;;;;;5112445;28;20023;-81
2021/09/20 03:53:06;;;;;;;6.65;3.22;;;9.80;99.90;;;;;;5112559;28;20311;-82
2021/09/20 03:55:31;;;;;;;;;;;9.80;99.90;;;;;;5112699;28;20032;-82
2021/09/20 03:57:57;;;;;;;5.60;3.50;;;9.70;99.90;;;;;;5111362;28;20889;-82
2021/09/20 04:00:22;;;;;;;;;;;9.70;99.90;;;;;;5112147;28;20028;-82
2021/09/20 04:02:48;;;;;;;5.63;4.00;;;9.70;99.90;;;;;;5112458;28;19904;-81
2021/09/20 04:05:13;;;;;;;;;;;9.60;99.90;;;;;;5112246;28;20387;-82
2021/09/20 04:07:41;;;;;;;4.53;3.22;;;9.60;99.90;;;;;;5110908;28;20004;-81
2021/09/20 04:10:08;;;;;;;8.00;3.97;;;9.60;99.90;;;;;;5112278;28;20508;-82
2021/09/20 04:12:34;;;;;;;6.55;3.80;;;9.60;99.90;;;;;;5110525;28;20122;-83
2021/09/20 04:15:00;;;;;;;;;;;9.60;99.90;;;;;;5112256;28;20103;-82
2021/09/20 04:17:26;;;;;;;6.05;4.18;;;9.60;99.90;;;;;;5111684;28;20348;-82
2021/09/20 04:19:51;;;;;;;6.18;4.90;;;9.60;99.90;;;;;;5111255;28;20268;-82
2021/09/20 04:22:17;;;;;;;;;;;9.60;99.90;;;;;;5112294;28;20715;-82
2021/09/20 04:24:44;;;;;;;6.00;3.63;;;9.60;99.90;;;;;;5111362;28;20010;-82
2021/09/20 04:27:09;;;;;;;6.03;3.70;;;9.60;99.90;;;;;;5110410;28;20065;-82
2021/09/20 04:29:35;;;;;;;;;;;9.70;99.90;;;;;;5109811;28;20111;-81
2021/09/20 04:32:01;;;;;;;5.55;3.65;;;9.70;99.90;;;;;;5111809;28;20376;-81
2021/09/20 04:34:26;;;;;;;;;;;9.70;99.90;;;;;;5112107;28;20807;-82
2021/09/20 04:36:53;;;;;;;5.53;3.30;;;9.70;99.90;;;;;;5111491;28;19914;-83
2021/09/20 04:39:19;;;;;;;5.18;3.20;;;9.70;99.90;;;;;;5109796;28;20039;-82
2021/09/20 04:41:44;;;;;;;;;;;9.80;99.90;;;;;;5110234;28;20024;-82
2021/09/20 04:44:10;;;;;;;5.40;3.40;;;9.80;99.90;;;;;;5110542;28;19929;-82
2021/09/20 04:46:36;;;;;;;;;;;9.80;99.90;;;;;;5111329;28;20036;-82
2021/09/20 04:49:02;;;;;;;4.72;3.47;;;9.80;99.90;;;;;;5109008;28;20349;-82
2021/09/20 04:51:27;;;;;;;;;;;9.80;99.90;;;;;;5110719;28;20102;-82
2021/09/20 04:53:53;;;;;;;4.40;3.45;;;9.90;99.90;;;;;;5110976;28;19918;-82
2021/09/20 04:56:18;;;;;;;;;;;9.90;99.90;;;;;;5111677;28;20069;-82
2021/09/20 04:58:44;;;;;;;8.82;2.83;;;9.90;99.90;;;;;;5110155;28;19979;-82
2021/09/20 05:01:10;;;;;;;;;;;10.00;99.90;;;;;;5110101;28;20423;-81
2021/09/20 05:03:35;;;;;;;8.50;3.67;;;10.10;99.90;;;;;;5109370;28;19903;-82
2021/09/20 05:06:01;;;;;;;;;;;10.20;99.90;;;;;;5110723;28;20028;-81
2021/09/20 05:08:26;;;;;;;3.78;2.58;;;10.30;99.90;;;;;;5110707;28;19907;-81
2021/09/20 05:10:52;;;;;;;;;;;10.40;99.90;;;;;;5110815;28;20034;-82
2021/09/20 05:13:18;;;;;;;5.10;2.58;;;10.50;99.90;;;;;;5109908;28;19907;-82
2021/09/20 05:15:43;;;;;;;;;;;10.50;99.90;;;;;;5110873;28;20020;-81
2021/09/20 05:18:11;;;;;;;6.13;2.63;;;10.60;99.90;;;;;;5110176;28;19964;-81
2021/09/20 05:20:37;;;;;;;3.40;2.45;;;10.60;99.90;;;;;;5110161;28;20080;-81
2021/09/20 05:23:03;;;;;;;8.75;2.70;;;10.70;99.90;;;;;;5108777;28;20130;-81
2021/09/20 05:25:28;;;;;;;;;;;10.70;99.90;;;;;;5110697;28;20494;-81
2021/09/20 05:27:54;;;;;;;6.80;2.92;;;10.80;99.90;;;;;;5109371;28;19904;-81
2021/09/20 05:30:20;;;;;;;;;;;10.80;99.90;;;;;;5110814;28;20034;-83
2021/09/20 05:32:45;;;;;;;4.47;3.03;;;10.80;99.90;;;;;;5110053;28;19983;-81
2021/09/20 05:35:12;;;;;;;;;;;10.80;99.90;;;;;;5109166;28;20015;-80
2021/09/20 05:37:38;;;;;;;7.70;2.97;;;10.90;99.90;;;;;;5107388;28;20329;-81
2021/09/20 05:40:04;;;;;;;;;;;10.90;99.90;;;;;;5091228;28;20032;-81
2021/09/20 05:42:30;;;;;;;5.65;3.85;;;11.00;99.90;;;;;;5108212;28;19938;-82
2021/09/20 05:44:55;;;;;;;;;;;11.00;99.90;;;;;;5110006;28;20400;-82
2021/09/20 05:47:21;;;;;;;4.90;3.33;;;11.10;99.90;;;;;;5107876;28;20325;-82
2021/09/20 05:49:46;;;;;;;;;;;11.10;99.90;;;;;;5109892;28;20294;-82
2021/09/20 05:52:12;;;;;;;5.88;3.10;;;11.20;99.90;;;;;;5110049;28;19907;-82
2021/09/20 05:54:38;;;;;;;;;;;11.20;99.90;;;;;;5109587;28;20027;-82
2021/09/20 05:57:03;;;;;;;4.78;3.42;;;11.20;99.90;;;;;;5109790;28;19916;-82
2021/09/20 05:59:29;;;;;;;;;;;11.20;99.90;;;;;;5108955;28;20046;-82
2021/09/20 06:01:55;;;;;;;4.80;3.72;;;11.30;99.90;;;;;;5108386;28;19950;-82
2021/09/20 06:04:20;;;;;;;;;;;11.30;99.90;;;;;;5108457;28;20019;-82
2021/09/20 06:06:46;;;;;;;4.75;3.45;;;11.20;99.90;;;;;;5109125;28;20592;-82
2021/09/20 06:09:11;;;;;;;;;;;11.30;99.90;;;;;;5108367;28;20028;-82
2021/09/20 06:11:37;;;;;;;9.45;4.55;;;11.30;99.90;;;;;;5108493;28;19907;-82
2021/09/20 06:14:03;;;;;;;;;;;11.40;99.90;;;;;;5107954;28;20442;-82
2021/09/20 06:16:28;;;;;;;6.25;4.43;;;11.40;99.90;;;;;;5107406;28;19908;-82
2021/09/20 06:18:54;;;;;;;;;;;11.50;99.90;;;;;;5109081;28;20123;-81
2021/09/20 06:21:19;;;;;;;7.15;4.50;;;11.60;99.90;;;;;;5107376;28;20257;-82
2021/09/20 06:23:45;;;;;;;;;;;11.70;99.90;;;;;;5108775;28;20030;-81
2021/09/20 06:26:10;;;;;;;6.63;4.18;;;11.90;99.90;;;;;;5108607;28;19907;-82
2021/09/20 06:28:36;;;;;;;;;;;12.20;99.90;;;;;;5108886;28;20024;-81
2021/09/20 06:31:02;;;;;;;9.20;5.05;;;12.50;99.90;;;;;;5108368;28;19911;-82
2021/09/20 06:33:33;;;;;;;5.35;3.88;;;13.00;99.90;;;;;;5108383;28;20088;-82
2021/09/20 06:35:59;;;;;;;6.03;3.63;;;13.60;99.90;;;;;;5106585;28;20055;-81
2021/09/20 06:38:26;;;;;;;4.72;3.60;;;14.10;99.90;;;;;;5108251;28;20023;-82
2021/09/20 06:40:52;;;;;;;5.88;4.10;;;14.40;99.90;;;;;;5106526;28;20396;-82
2021/09/20 06:43:17;;;;;;;;;;;14.60;99.90;;;;;;5106962;28;20077;-81
2021/09/20 06:45:43;;;;;;;4.78;3.05;;;14.80;98.80;;;;;;5108054;28;19960;-82
2021/09/20 06:48:09;;;;;;;;;;;15.00;98.80;;;;;;5108531;28;20055;-82
2021/09/20 06:50:35;;;;;;;3.60;2.70;;;15.10;97.80;;;;;;5108203;28;19904;-82
2021/09/20 06:53:00;;;;;;;;;;;15.20;97.60;;;;;;5108238;28;20093;-82
2021/09/20 06:55:26;;;;;;;3.97;3.20;;;15.20;96.40;;;;;;5106557;28;19931;-82
2021/09/20 06:57:58;;;;;;;5.20;3.03;;;15.20;96.50;;;;;;5105721;28;20031;-82
2021/09/20 07:00:24;;;;;;;5.40;3.50;;;15.20;96.50;;;;;;5107580;28;20023;-81
2021/09/20 07:02:50;;;;;;;4.10;3.10;;;15.20;96.40;;;;;;5106764;28;20038;-82
2021/09/20 07:05:16;;;;;;;;;;;15.10;96.70;;;;;;5108266;28;20028;-82
2021/09/20 07:07:41;;;;;;;5.60;3.13;;;15.10;96.70;;;;;;5105994;28;19907;-82
2021/09/20 07:10:08;;;;;;;9.18;3.60;;;15.10;97.10;;;;;;5107567;28;20024;-80
2021/09/20 07:12:33;;;;;;;3.70;2.78;;;15.20;97.10;;;;;;5106880;28;20031;-82
2021/09/20 07:14:59;;;;;;;;;;;15.20;97.00;;;;;;5107070;28;20396;-83
2021/09/20 07:17:24;;;;;;;4.43;2.95;;;15.30;96.00;;;;;;5106503;28;19907;-81
2021/09/20 07:19:50;;;;;;;9.02;4.05;;;15.40;95.90;;;;;;5107268;28;20084;-82
2021/09/20 07:22:15;;;;;;;;;;;15.50;94.80;;;;;;5106665;28;20026;-82
2021/09/20 07:24:41;;;;;;;5.32;3.33;;;15.60;95.00;;;;;;5106190;28;20372;-82
2021/09/20 07:27:06;;;;;;;;;;;15.70;94.80;;;;;;5107374;28;20212;-82
2021/09/20 07:29:32;;;;;;;9.20;3.22;;;15.70;94.50;;;;;;5107181;28;20014;-82
2021/09/20 07:31:58;;;;;;;;;;;15.60;94.50;;;;;;5106927;28;20028;-82
2021/09/20 07:34:23;;;;;;;6.00;3.88;;;15.60;93.70;;;;;;5107504;28;19992;-82
2021/09/20 07:36:49;;;;;;;21.60;5.22;;;15.40;94.30;;;;;;5107477;28;20028;-81
2021/09/20 07:39:15;;;;;;;21.92;5.50;;;15.30;94.90;;;;;;5107379;28;20044;-82
2021/09/20 07:41:40;;;;;;;;;;;15.30;95.10;;;;;;5106253;28;20031;-82
2021/09/20 07:44:06;;;;;;;7.10;3.63;;;15.50;95.10;;;;;;5106999;28;20002;-82
2021/09/20 07:46:31;;;;;;;4.95;3.35;;;15.70;94.40;;;;;;5105912;28;20065;-80
2021/09/20 07:48:58;;;;;;;13.55;4.03;;;16.00;94.00;;;;;;5105451;28;20027;-81
2021/09/20 07:51:23;;;;;;;5.35;3.20;;;16.20;93.40;;;;;;5105900;28;20036;-81
2021/09/20 07:53:49;;;;;;;5.40;3.03;;;16.40;92.90;;;;;;5107024;28;20317;-81
2021/09/20 07:56:15;;;;;;;4.00;3.15;;;16.70;92.00;;;;;;5108908;28;20028;-82
2021/09/20 07:58:40;;;;;;;4.95;3.25;;;16.90;91.50;;;;;;5106662;28;20088;-81
2021/09/20 08:01:06;;;;;;;4.60;3.10;;;17.10;91.10;;;;;;5106365;28;20024;-82
2021/09/20 08:03:32;;;;;;;19.02;4.40;;;17.40;90.70;;;;;;5106631;28;20028;-81
2021/09/20 08:05:58;;;;;;;13.07;3.35;;;17.60;89.60;;;;;;5106852;28;20027;-82
2021/09/20 08:08:23;;;;;;;8.65;4.05;;;17.70;88.90;;;;;;5107000;28;20387;-81
2021/09/20 08:10:50;;;;;;;10.57;3.22;;;17.60;87.60;;;;;;5106481;28;20108;-82
2021/09/20 08:13:16;;;;;;;8.13;2.85;;;17.50;87.60;;;;;;5106812;28;20024;-83
2021/09/20 08:15:43;;;;;;;4.97;2.53;;;17.40;88.50;;;;;;5106854;28;20031;-82
2021/09/20 08:18:10;;;;;;;7.28;2.83;;;17.10;88.60;;;;;;5106233;28;20328;-82
2021/09/20 08:20:36;;;;;;;5.50;3.10;;;17.00;88.70;;;;;;5107039;28;20476;-81
2021/09/20 08:23:02;;;;;;;3.85;2.70;;;16.90;88.30;;;;;;5105581;28;20027;-81
2021/09/20 08:25:31;;;;;;;4.05;2.60;;;16.90;88.30;;;;;;5107085;28;20479;-82
2021/09/20 08:27:56;;;;;;;8.32;3.25;;;17.00;88.60;;;;;;5109078;28;20432;-82
2021/09/20 08:30:22;;;;;;;4.43;2.55;;;17.10;88.40;;;;;;5110218;28;20107;-82
2021/09/20 08:32:49;;;;;;;4.40;2.83;;;17.10;88.40;;;;;;5110425;28;20055;-81
2021/09/20 08:35:15;;;;;;;4.32;2.70;;;17.20;87.70;;;;;;5109234;28;20059;-81
2021/09/20 08:37:40;;;;;;;4.47;2.90;;;17.20;87.60;;;;;;5110319;28;20059;-82
2021/09/20 08:40:07;;;;;;;6.22;2.67;;;17.20;87.10;;;;;;5109335;28;20028;-82
2021/09/20 08:42:37;;;;;;;4.75;2.67;;;17.10;87.30;;;;;;5109852;28;20509;-82
2021/09/20 08:45:05;;;;;;;4.80;2.53;;;17.20;86.50;;;;;;5108619;28;20232;-82
2021/09/20 08:47:31;;;;;;;4.07;2.63;;;17.20;86.90;;;;;;5108373;28;20064;-82
2021/09/20 08:49:57;;;;;;;5.43;2.50;;;17.20;86.30;;;;;;5108249;28;20118;-82
2021/09/20 08:52:23;;;;;;;4.72;2.15;;;17.20;87.60;;;;;;5109720;28;20512;-82
2021/09/20 08:54:51;;;;;;;5.63;3.05;;;17.40;87.70;;;;;;5109637;28;20032;-81
2021/09/20 08:57:18;;;;;;;6.53;3.00;;;17.60;87.60;;;;;;5109859;28;20020;-81
2021/09/20 08:59:43;;;;;;;4.13;2.88;;;17.70;86.20;;;;;;5110028;28;20039;-81
2021/09/20 09:02:14;;;;;;;6.45;3.03;;;18.00;84.50;;;;;;5109503;28;20034;-81
2021/09/20 09:04:40;;;;;;;3.40;2.60;;;18.10;84.30;;;;;;5109726;28;20036;-80
2021/09/20 09:07:18;;;;;;;10.18;2.65;;;18.10;84.40;;;;;;5108155;28;20023;-81
2021/09/20 09:09:47;;;;;;;10.23;2.78;;;18.10;82.80;;;;;;5109320;28;20080;-81
2021/09/20 09:12:14;;;;;;;5.15;3.20;;;18.10;82.60;;;;;;5109061;28;20461;-81
2021/09/20 09:14:57;;;;;;;3.83;2.50;;;18.10;82.30;;;;;;5109698;28;20023;-81
2021/09/20 09:17:24;;;;;;;4.85;2.95;;;18.20;82.30;;;;;;5108432;28;20027;-81
2021/09/20 09:19:53;;;;;;;2.60;2.03;;;18.20;81.70;;;;;;5107901;28;20092;-81
2021/09/20 09:22:21;;;;;;;2.92;2.22;;;18.40;82.50;;;;;;5109254;28;20102;-81
2021/09/20 09:24:59;;;;;;;12.05;3.35;;;18.70;81.30;;;;;;5108236;28;20031;-82
2021/09/20 09:27:26;;;;;;;7.97;2.20;;;18.70;80.70;;;;;;5108909;28;20039;-81
2021/09/20 09:30:11;;;;;;;3.75;2.25;;;18.70;79.70;;;;;;5109192;28;20484;-81
2021/09/20 09:32:39;;;;;;;5.03;2.33;;;18.90;79.80;;;;;;5107798;28;20023;-81
2021/09/20 09:35:07;;;;;;;6.38;2.75;;;19.50;79.00;;;;;;5107193;28;20019;-82
2021/09/20 09:37:35;;;;;;;4.38;2.25;;;20.20;76.90;;;;;;5107645;28;20032;-81
2021/09/20 09:40:06;;;;;;;3.80;2.80;;;20.90;73.40;;;;;;5107003;28;20063;-81
2021/09/20 09:42:31;;;;;;;5.43;2.35;;;21.00;70.10;;;;;;5108611;28;20531;-82
2021/09/20 09:45:31;;;;;;;4.03;2.80;;;20.70;70.50;;;;;;5109038;28;20114;-81
2021/09/20 09:48:15;;;;;;;7.60;2.78;;;20.20;71.30;;;;;;5105642;28;20035;-82
2021/09/20 09:50:43;;;;;;;4.47;3.10;;;19.50;72.70;;;;;;5108813;28;20533;-81
2021/09/20 09:53:22;;;;;;;3.85;2.50;;;19.00;74.10;;;;;;5108236;28;20023;-82
2021/09/20 09:55:47;;;;;;;5.13;2.92;;;18.60;75.70;;;;;;5108293;28;20088;-82
2021/09/20 09:58:15;;;;;;;5.90;2.95;;;18.10;78.30;;;;;;5106938;28;20433;-81
2021/09/20 10:00:41;;;;;;;7.85;3.03;;;17.90;79.60;;;;;;5108651;28;20081;-81
2021/09/20 10:03:06;;;;;;;3.70;2.67;;;17.60;80.80;;;;;;5107213;28;20020;-81
2021/09/20 10:05:32;;;;;;;5.57;3.35;;;17.40;81.70;;;;;;5107141;28;20042;-82
2021/09/20 10:07:58;;;;;;;5.38;3.15;;;17.40;81.80;;;;;;5107032;28;20037;-82
2021/09/20 10:10:29;;;;;;;4.63;2.97;;;17.30;82.50;;;;;;5108439;28;20403;-82
2021/09/20 10:12:58;;;;;;;4.82;2.75;;;17.30;82.70;;;;;;5108193;28;20031;-81
2021/09/20 10:15:26;;;;;;;5.50;2.78;;;17.40;82.40;;;;;;5108664;28;20035;-82
2021/09/20 10:17:51;;;;;;;3.65;2.28;;;17.30;82.40;;;;;;5106419;28;20048;-82
2021/09/20 10:20:20;;;;;;;4.88;2.17;;;17.30;81.90;;;;;;5108412;28;20073;-82
2021/09/20 10:22:46;;;;;;;4.90;3.10;;;17.30;81.90;;;;;;5107145;28;20030;-81
2021/09/20 10:25:14;;;;;;;5.03;3.35;;;17.30;82.00;;;;;;5107855;28;20103;-82
2021/09/20 10:27:40;;;;;;;3.88;2.38;;;17.30;82.50;;;;;;5107985;28;20028;-82
2021/09/20 10:30:35;;;;;;;4.25;2.70;;;17.00;83.50;;;;;;5107754;28;20492;-81
2021/09/20 10:33:06;;;;;;;4.82;2.65;;;17.00;84.10;;;;;;5107910;27;20024;-82
2021/09/20 10:35:41;;;;;;;3.25;2.40;;;16.90;84.70;;;;;;5106663;28;20023;-81
2021/09/20 10:38:21;;;;;;;8.43;2.55;;;16.90;84.50;;;;;;5107608;28;20020;-83
2021/09/20 10:41:12;;;;;;;6.97;2.75;;;16.80;85.50;;;;;;5107567;28;20034;-82
2021/09/20 10:43:47;;;;;;;4.50;2.65;;;16.90;85.70;;;;;;5098863;28;20492;-82
2021/09/20 10:46:24;;;;;;;3.10;2.28;;;16.90;85.60;;;;;;5107565;28;20110;-81
2021/09/20 10:48:54;;;;;;;3.80;2.35;;;17.10;85.60;;;;;;5106036;28;20027;-81
2021/09/20 10:51:28;;;;;;;3.22;2.25;;;17.40;84.40;;;;;;5107367;28;20106;-82
2021/09/20 10:54:12;;;;;;;4.53;2.45;;;17.70;82.80;;;;;;5107382;28;20396;-81
2021/09/20 10:56:39;;;;;;;2.45;1.92;;;18.00;81.60;;;;;;5106040;28;20564;-82
2021/09/20 10:59:10;;;;;;;2.78;1.80;;;18.20;79.90;;;;;;5106314;28;20067;-82
2021/09/20 11:01:38;;;;;;;4.22;2.30;;;18.40;79.40;;;;;;5107705;28;20034;-82
2021/09/20 11:04:09;;;;;;;5.70;2.45;;;18.50;78.90;;;;;;5106036;28;20032;-80
2021/09/20 11:06:39;;;;;;;4.03;2.25;;;18.60;78.30;;;;;;5106250;28;20020;-81
2021/09/20 11:09:08;;;;;;;3.70;1.90;;;18.60;77.50;;;;;;5107331;28;20039;-82
2021/09/20 11:11:37;;;;;;;3.55;1.90;;;18.60;77.30;;;;;;5106778;28;20035;-82
2021/09/20 11:14:20;;;;;;;4.00;2.13;;;18.60;77.00;;;;;;5107518;28;20300;-80
2021/09/20 11:16:52;;;;;;;3.53;2.42;;;18.50;76.90;;;;;;5107287;28;20034;-81
2021/09/20 11:19:24;;;;;;;3.47;2.17;;;18.30;77.30;;;;;;5107161;28;20059;-81
2021/09/20 11:22:05;;;;;;;3.40;2.60;;;18.20;77.50;;;;;;5105575;28;20076;-81
2021/09/20 11:24:36;;;;;;;3.30;2.00;;;17.90;77.70;;;;;;5106728;28;20524;-81
2021/09/20 11:27:04;;;;;;;4.47;2.42;;;17.80;78.50;;;;;;5106398;28;20067;-81
2021/09/20 11:29:30;;;;;;;6.13;2.47;;;17.70;79.30;;;;;;5107066;28;20039;-80
2021/09/20 11:31:56;;;;;;;3.58;2.60;;;17.70;79.80;;;;;;5105518;28;20503;-81
2021/09/20 11:34:30;;;;;;;3.90;2.65;;;17.70;79.90;;;;;;5105902;28;20069;-81
2021/09/20 11:37:21;;;;;;;22.40;5.00;;;17.80;79.40;;;;;;5105507;28;20020;-81
2021/09/20 11:39:51;;;;;;;8.20;3.08;;;18.00;79.40;;;;;;5097584;28;20043;-82
2021/09/20 11:42:19;;;;;;;3.88;2.83;;;18.20;79.20;;;;;;5105472;28;20115;-81
2021/09/20 11:45:05;;;;;;;3.08;2.45;;;18.20;78.90;;;;;;5105579;28;20666;-81
2021/09/20 11:47:36;;;;;;;5.00;2.55;;;18.30;78.60;;;;;;5106337;28;20031;-81
2021/09/20 11:50:07;;;;;;;3.40;2.60;;;18.30;78.40;;;;;;5107080;28;20039;-80
2021/09/20 11:52:38;;;;;;;5.40;2.67;;;18.20;77.70;;;;;;5106230;28;20024;-82
2021/09/20 11:55:21;;;;;;;4.57;2.53;;;18.10;78.30;;;;;;5105838;28;20488;-80
2021/09/20 11:57:52;;;;;;;4.82;2.90;;;17.90;79.60;;;;;;5105948;28;20400;-81
2021/09/20 12:00:20;;;;;;;3.92;2.85;;;17.90;80.20;;;;;;5107042;28;20042;-81
2021/09/20 12:02:48;;;;;;;3.60;2.42;;;17.90;79.20;;;;;;5110948;28;20116;-80
2021/09/20 12:05:18;;;;;;;6.13;3.05;;;18.00;79.20;;;;;;5110468;28;20028;-81
2021/09/20 12:07:50;;;;;;;4.10;2.80;;;18.00;78.40;;;;;;5110433;28;20030;-81
2021/09/20 12:10:18;;;;;;;5.15;2.75;;;18.10;79.10;;;;;;5109757;28;20118;-81
2021/09/20 12:12:49;;;;;;;5.18;2.80;;;18.20;77.60;;;;;;5109371;28;20019;-81
2021/09/20 12:15:16;;;;;;;4.90;3.33;;;18.40;78.30;;;;;;5109361;28;20106;-81
2021/09/20 12:17:49;;;;;;;3.53;2.55;;;18.50;77.10;;;;;;5110267;28;20542;-82
2021/09/20 12:20:16;;;;;;;4.88;2.47;;;18.60;75.60;;;;;;5110592;28;20047;-81
2021/09/20 12:22:45;;;;;;;4.35;2.47;;;18.60;75.00;;;;;;5110415;28;20061;-82
2021/09/20 12:25:21;;;;;;;3.35;2.33;;;18.60;75.50;;;;;;5109186;28;20407;-81
2021/09/20 12:27:47;;;;;;;;;;;18.50;75.30;;;;;;5109453;28;20039;-81
2021/09/20 12:30:19;;;;;;;6.10;3.10;;;18.40;76.10;;;;;;5110634;28;20142;-80
2021/09/20 12:32:45;;;;;;;4.03;2.53;;;18.40;76.30;;;;;;5110489;28;20027;-81
2021/09/20 12:35:12;;;;;;;6.57;2.80;;;18.30;76.00;;;;;;5110299;28;20039;-82
2021/09/20 12:37:38;;;;;;;5.75;2.45;;;18.20;76.20;;;;;;5108819;28;20031;-81
2021/09/20 12:40:18;;;;;;;6.30;2.03;;;18.10;76.30;;;;;;5108816;28;20513;-81
2021/09/20 12:43:11;;;;;;;5.97;2.50;;;18.10;75.30;;;;;;5109045;28;20035;-82
2021/09/20 12:45:44;;;;;;;5.55;2.42;;;18.20;75.30;;;;;;5109834;28;20031;-80
2021/09/20 12:48:11;;;;;;;4.18;2.50;;;18.30;74.30;;;;;;5110076;28;20091;-81
2021/09/20 12:50:38;;;;;;;5.53;2.60;;;18.20;74.60;;;;;;5110426;28;20030;-80
2021/09/20 12:53:04;;;;;;;4.53;2.55;;;18.10;75.80;;;;;;5109554;28;20033;-82
2021/09/20 12:55:36;;;;;;;6.80;3.00;;;18.00;76.10;;;;;;5109805;28;20031;-81
2021/09/20 12:58:04;;;;;;;5.28;2.50;;;17.90;76.90;;;;;;5108281;28;20066;-82
2021/09/20 13:00:36;;;;;;;3.80;2.47;;;17.90;77.90;;;;;;5109243;28;20046;-79
2021/09/20 13:03:12;;;;;;;4.47;2.65;;;17.90;77.10;;;;;;5108220;28;20066;-81
2021/09/20 13:05:56;;;;;;;7.53;2.90;;;17.90;77.60;;;;;;5110028;28;20035;-81
2021/09/20 13:08:22;;;;;;;5.80;3.58;;;17.90;77.30;;;;;;5107995;28;20035;-81
2021/09/20 13:10:47;;;;;;;7.32;3.15;;;17.80;77.50;;;;;;5109464;28;20016;-80